Ana Sayfa
METAR-TAF:

METAR-TAF

Havaalanları :

Şanghay Pudong Uluslararası Havalimanı

Şanghay-Pudong, Çin

Enlem: 31-07N, Boylam: 121-46E, yükseklik: 4 m

Güncel hava durumu gözlemi

Rapor saat 08:30 UTC de 20 dakika önce yapıldı.
Rüzgar güneydoğudan 12 kt
Sıcaklık 11°C
Nem 58%
Basınç 1026 hPa
Görüş mesafesi 10 km veya daha fazla
1500 m altında bulut yok ve kümülonimbus yok

METAR: ZSPD 230830Z 13006MPS CAVOK 11/03 Q1026 NOSIG

Saat: 16:50 (08:50 UTC)

Tahmin

Rapor saat 03:13 UTC de 5 saat ve 37 dakika önce yapıldı.
Ayın 23'si saat 06 UTC'den ayın 24'si saat 06 UTC'ye kadar geçerli Tahmin
Rüzgar güneydoğudan 8 kt
Görüş mesafesi: 5000 m
2000 ft yükseklikte parçalı çok bulutlu
Pus

TAF: ZSPD 230313Z 2306/2406 14004MPS 5000 BR BKN020 TX20/2406Z TN08/2321Z

4.000'den fazla havaalanı için hava durumu gözlemleri ve tahminleri (METAR ve TAF raporları).

Kullanılabilir istasyonlar harita üzerinde sarı ve kırmızı noktalarla gösterilir.

İstasyonun adını görmek için fareyi noktanın üzerinde gezdirin.

Sonrasında hava gözlem ve tahminlerini görmek için tıklayın.

Haritayı değiştirmek için: yaklaştırmak için siyah artı işaretli yeşil düğmeye ve uzaklaştırmak için de eksi işaretli düğmeye hızla tıklayın; bitişik haritalar için yeşil okları kullanın.


METAR-TAF: